createdAt,value
2017-04-04T00:08:22.710Z,0
2017-04-04T00:18:33.826Z,0
2017-04-04T00:28:45.046Z,0
2017-04-04T00:38:56.277Z,0
2017-04-04T00:49:07.482Z,0
2017-04-04T00:59:18.746Z,0
2017-04-04T01:09:29.985Z,0
2017-04-04T01:19:41.250Z,0
2017-04-04T01:29:52.559Z,0
2017-04-04T01:40:03.843Z,0
2017-04-04T01:50:15.168Z,0
2017-04-04T02:00:26.537Z,0
2017-04-04T02:10:37.954Z,0
2017-04-04T02:20:49.375Z,0
2017-04-04T02:31:00.833Z,0
2017-04-04T02:41:12.338Z,0
2017-04-04T02:51:23.930Z,0
2017-04-04T03:01:35.515Z,0
2017-04-04T03:11:47.060Z,0
2017-04-04T03:21:58.615Z,0
2017-04-04T03:32:10.141Z,0
2017-04-04T03:42:21.703Z,0
2017-04-04T03:52:33.316Z,0
2017-04-04T04:02:44.956Z,0
2017-04-04T04:12:56.629Z,0
2017-04-04T04:23:08.342Z,0
2017-04-04T04:33:19.971Z,0
2017-04-04T04:43:31.534Z,0
2017-04-04T04:53:43.188Z,10
2017-04-04T05:03:54.843Z,30
2017-04-04T05:14:06.507Z,55
2017-04-04T05:24:18.019Z,90
2017-04-04T05:34:29.435Z,125
2017-04-04T05:44:40.645Z,165
2017-04-04T05:54:51.709Z,210
2017-04-04T06:05:02.571Z,265
2017-04-04T06:15:13.256Z,345
2017-04-04T06:25:23.680Z,545
2017-04-04T06:35:33.987Z,670
2017-04-04T06:45:44.080Z,790
2017-04-04T06:55:53.951Z,935
2017-04-04T07:06:03.665Z,1095
2017-04-04T07:16:13.210Z,1180
2017-04-04T07:26:22.706Z,1150
2017-04-04T07:36:31.967Z,1455
2017-04-04T07:46:41.296Z,1595
2017-04-04T07:56:50.440Z,1695
2017-04-04T08:06:59.519Z,1890
2017-04-04T08:17:08.484Z,1970
2017-04-04T08:27:17.340Z,2140
2017-04-04T08:37:26.206Z,2230
2017-04-04T08:47:35.001Z,2305
2017-04-04T08:57:43.799Z,2385
2017-04-04T09:07:52.553Z,2520
2017-04-04T09:18:01.238Z,2690
2017-04-04T09:28:09.851Z,2745
2017-04-04T09:38:18.378Z,2810
2017-04-04T09:48:26.885Z,2975
2017-04-04T09:58:35.456Z,3110
2017-04-04T10:08:44.051Z,3135
2017-04-04T10:18:52.684Z,3215
2017-04-04T10:29:01.346Z,3265
2017-04-04T10:39:09.981Z,3260
2017-04-04T10:49:18.603Z,3365
2017-04-04T10:59:27.261Z,3360
2017-04-04T11:09:35.901Z,3060
2017-04-04T11:19:44.492Z,3375
2017-04-04T11:29:53.080Z,3470
2017-04-04T11:40:01.647Z,3450
2017-04-04T11:50:10.165Z,3340
2017-04-04T12:00:18.577Z,3250
2017-04-04T12:10:26.951Z,3160
2017-04-04T12:20:35.325Z,3345
2017-04-04T12:30:43.694Z,3045
2017-04-04T12:40:52.033Z,3150
2017-04-04T12:51:00.274Z,2660
2017-04-04T13:01:08.504Z,2855
2017-04-04T13:11:16.770Z,2845
2017-04-04T13:21:25.007Z,2600
2017-04-04T13:31:33.249Z,2590
2017-04-04T13:41:41.396Z,2460
2017-04-04T13:51:49.506Z,2305
2017-04-04T14:01:57.640Z,2255
2017-04-04T14:12:05.779Z,2185
2017-04-04T14:22:13.868Z,2085
2017-04-04T14:32:22.036Z,2070
2017-04-04T14:42:30.203Z,1980
2017-04-04T14:52:38.281Z,1850
2017-04-04T15:02:46.340Z,1690
2017-04-04T15:12:54.445Z,1485
2017-04-04T15:23:02.602Z,1430
2017-04-04T15:33:10.714Z,1235
2017-04-04T15:43:18.900Z,1080
2017-04-04T15:53:27.150Z,940
2017-04-04T16:13:44.354Z,430
2017-04-04T16:23:53.422Z,375
2017-04-04T16:34:02.655Z,335
2017-04-04T16:44:11.983Z,315
2017-04-04T16:54:21.234Z,325
2017-04-04T17:04:30.393Z,275
2017-04-04T17:14:39.744Z,190
2017-04-04T17:24:49.231Z,145
2017-04-04T17:34:58.887Z,110
2017-04-04T17:45:08.676Z,75
2017-04-04T17:55:18.571Z,45
2017-04-04T18:05:28.487Z,20
2017-04-04T18:15:38.503Z,5
2017-04-04T18:25:48.603Z,0
2017-04-04T18:35:58.737Z,0
2017-04-04T18:46:08.890Z,0
2017-04-04T18:56:19.078Z,0
2017-04-04T19:06:29.363Z,0
2017-04-04T19:16:39.694Z,0
2017-04-04T19:26:50.116Z,0
2017-04-04T19:37:00.490Z,0
2017-04-04T19:47:10.923Z,0
2017-04-04T19:57:21.297Z,0
2017-04-04T20:07:31.753Z,0
2017-04-04T20:17:42.214Z,0
2017-04-04T20:27:52.674Z,0
2017-04-04T20:38:03.144Z,0
2017-04-04T20:48:13.652Z,0
2017-04-04T20:58:24.216Z,0
2017-04-04T21:08:34.834Z,0
2017-04-04T21:18:45.477Z,0
2017-04-04T21:28:56.134Z,0
2017-04-04T21:39:06.792Z,0
2017-04-04T21:49:17.484Z,0
2017-04-04T21:59:28.212Z,0
2017-04-04T22:09:38.953Z,0
2017-04-04T22:19:49.716Z,0
2017-04-04T22:30:00.540Z,0
2017-04-04T22:40:11.422Z,0
2017-04-04T22:50:22.280Z,0
2017-04-04T23:00:33.140Z,0
2017-04-04T23:10:43.985Z,0
2017-04-04T23:20:54.898Z,0
2017-04-04T23:31:05.796Z,0
2017-04-04T23:41:16.695Z,0
2017-04-04T23:51:27.627Z,0
